Time;durP1;ratioP1;P1;durP2;ratioP2;P2;SDS_P1;SDS_P2;PMS_P1;PMS_P2;Temp;Humidity;BMP_temperature;BMP_pressure;BME280_temperature;BME280_humidity;BME280_pressure;Samples;Min_cycle;Max_cycle;Signal;HPM_P1;HPM_P2
2022/06/27 00:02:25;;;;;;;15.15;10.98;;;;;;;23.34;51.41;100246.16;5032309;28;20037;-60
2022/06/27 00:04:51;;;;;;;15.65;10.77;;;;;;;23.33;51.53;100244.47;5032196;28;20116;-59
2022/06/27 00:07:17;;;;;;;19.55;10.98;;;;;;;23.32;51.49;100249.06;5032061;28;20117;-62
2022/06/27 00:09:42;;;;;;;20.30;11.05;;;;;;;23.29;51.51;100243.19;5031981;28;20112;-61
2022/06/27 00:12:08;;;;;;;13.10;10.15;;;;;;;23.13;51.93;100225.97;5032304;28;20034;-59
2022/06/27 00:14:35;;;;;;;18.42;10.95;;;;;;;23.30;51.56;100255.78;5032131;28;20033;-61
2022/06/27 00:17:01;;;;;;;17.27;10.38;;;;;;;23.26;51.87;100249.00;5032162;28;20041;-60
2022/06/27 00:19:28;;;;;;;16.60;9.93;;;;;;;23.26;51.88;100251.75;5033094;28;20378;-59
2022/06/27 00:21:54;;;;;;;17.75;10.77;;;;;;;23.21;52.43;100249.59;5033056;28;20049;-61
2022/06/27 00:24:19;;;;;;;19.73;11.20;;;;;;;23.21;52.31;100255.06;5032925;28;20456;-59
2022/06/27 00:26:45;;;;;;;15.70;11.45;;;;;;;23.03;52.34;100234.50;5031600;28;20035;-61
2022/06/27 00:29:10;;;;;;;17.08;11.75;;;;;;;23.06;52.14;100238.75;5032193;28;20103;-61
2022/06/27 00:31:36;;;;;;;17.52;11.73;;;;;;;23.16;52.17;100252.91;5029500;28;20573;-59
2022/06/27 00:34:02;;;;;;;21.23;11.52;;;;;;;23.19;52.16;100270.78;5031861;28;20057;-60
2022/06/27 00:36:27;;;;;;;17.73;11.32;;;;;;;23.14;52.35;100259.59;5032038;28;20025;-60
2022/06/27 00:38:53;;;;;;;21.27;11.43;;;;;;;23.13;52.90;100266.09;5031884;28;20087;-61
2022/06/27 00:41:18;;;;;;;19.60;12.52;;;;;;;23.11;53.12;100269.03;5030319;28;20037;-58
2022/06/27 00:43:45;;;;;;;20.02;11.93;;;;;;;23.07;53.66;100278.66;5026648;28;20092;-59
2022/06/27 00:46:11;;;;;;;19.52;11.80;;;;;;;22.94;53.45;100255.63;5024524;28;20060;-58
2022/06/27 00:48:37;;;;;;;22.35;12.95;;;;;;;22.87;53.76;100245.69;5031075;28;20065;-58
2022/06/27 00:51:03;;;;;;;18.98;11.80;;;;;;;22.93;53.98;100256.69;5027884;28;20129;-59
2022/06/27 00:53:30;;;;;;;17.08;11.38;;;;;;;22.93;53.65;100264.88;5031960;28;20033;-58
2022/06/27 00:55:55;;;;;;;19.60;12.27;;;;;;;22.97;53.55;100262.59;5031813;28;20045;-60
2022/06/27 00:58:21;;;;;;;19.70;11.55;;;;;;;22.99;53.83;100265.97;5031401;28;20033;-57
2022/06/27 01:00:47;;;;;;;17.63;11.48;;;;;;;22.98;54.06;100256.09;5030987;28;20069;-61
2022/06/27 01:03:13;;;;;;;17.10;11.95;;;;;;;22.97;53.78;100268.06;5031024;28;20475;-60
2022/06/27 01:05:51;;;;;;;17.90;12.13;;;;;;;22.77;54.25;100230.50;5030733;28;20095;-59
2022/06/27 01:08:18;;;;;;;18.25;12.02;;;;;;;22.96;53.97;100271.84;5031885;28;20026;-60
2022/06/27 01:10:45;;;;;;;19.17;12.30;;;;;;;22.94;54.46;100261.09;5031463;28;20044;-60
2022/06/27 01:13:10;;;;;;;17.75;11.68;;;;;;;22.93;54.60;100269.50;5031768;28;20025;-60
2022/06/27 01:15:36;;;;;;;15.30;11.50;;;;;;;22.94;54.58;100263.00;5032007;28;20048;-58
2022/06/27 01:18:02;;;;;;;16.27;11.52;;;;;;;22.92;54.99;100265.09;5031759;28;20108;-60
2022/06/27 01:20:27;;;;;;;17.05;12.07;;;;;;;22.91;54.69;100255.19;5031334;28;20068;-61
2022/06/27 01:22:53;;;;;;;19.23;11.77;;;;;;;22.95;55.04;100261.97;5032053;28;20381;-61
2022/06/27 01:25:20;;;;;;;23.33;12.98;;;;;;;22.97;55.05;100262.59;5046890;28;20040;-62
2022/06/27 01:27:45;;;;;;;17.35;12.77;;;;;;;22.96;55.13;100265.50;5031612;28;20340;-60
2022/06/27 01:30:12;;;;;;;20.27;11.85;;;;;;;22.97;55.49;100270.78;5031746;28;20033;-61
2022/06/27 01:32:37;;;;;;;13.88;11.93;;;;;;;22.97;55.50;100256.28;5031827;28;20381;-60
2022/06/27 01:35:04;;;;;;;20.23;12.50;;;;;;;22.86;55.62;100239.41;5031771;28;20033;-60
2022/06/27 01:37:29;;;;;;;17.95;11.60;;;;;;;22.98;55.65;100257.97;5029643;28;20323;-60
2022/06/27 01:39:57;;;;;;;18.58;13.10;;;;;;;23.03;55.52;100261.81;5030676;28;20114;-59
2022/06/27 01:42:23;;;;;;;20.95;12.52;;;;;;;23.05;55.58;100259.72;5030641;28;20041;-60
2022/06/27 01:44:49;;;;;;;16.75;11.60;;;;;;;23.09;55.52;100271.94;5030954;28;20048;-59
2022/06/27 01:47:14;;;;;;;25.33;12.65;;;;;;;23.11;55.47;100266.31;5030613;28;20048;-60
2022/06/27 01:49:40;;;;;;;17.73;12.27;;;;;;;23.03;55.45;100244.56;5030731;28;20026;-61
2022/06/27 01:52:08;;;;;;;18.63;11.45;;;;;;;23.12;55.35;100245.28;5030143;28;20037;-60
2022/06/27 01:54:35;;;;;;;20.17;12.27;;;;;;;23.25;55.40;100264.56;5030547;28;20049;-59
2022/06/27 01:57:00;;;;;;;22.90;12.27;;;;;;;23.26;55.15;100255.31;5030604;28;20474;-60
2022/06/27 01:59:28;;;;;;;21.80;12.32;;;;;;;23.34;54.96;100268.00;5030599;28;20049;-60
2022/06/27 02:01:55;;;;;;;23.52;12.50;;;;;;;23.36;55.24;100265.91;5030960;28;20069;-59
2022/06/27 02:04:21;;;;;;;22.70;12.98;;;;;;;23.38;54.87;100258.38;5030898;28;20037;-57
2022/06/27 02:06:47;;;;;;;23.92;12.43;;;;;;;23.46;55.15;100268.31;5030667;28;20095;-60
2022/06/27 02:09:15;;;;;;;27.63;12.43;;;;;;;23.52;54.99;100272.97;5030613;28;20037;-58
2022/06/27 02:11:42;;;;;;;20.55;11.45;;;;;;;23.56;54.81;100268.81;5030290;28;20037;-57
2022/06/27 02:14:07;;;;;;;25.48;11.52;;;;;;;23.63;54.44;100257.91;5029219;28;20132;-60
2022/06/27 02:16:53;;;;;;;16.80;12.00;;;;;;;23.73;54.64;100254.84;5030022;28;20052;-59
2022/06/27 02:19:20;;;;;;;24.30;11.75;;;;;;;23.80;54.23;100245.63;5030726;28;20037;-59
2022/06/27 02:21:46;;;;;;;21.90;11.45;;;;;;;24.02;53.96;100258.41;5030210;28;20030;-59
2022/06/27 02:24:13;;;;;;;25.33;11.20;;;;;;;24.19;53.60;100264.38;5030628;28;20508;-60
2022/06/27 02:26:40;;;;;;;26.05;12.07;;;;;;;24.43;52.92;100254.81;5026719;28;20474;-59
2022/06/27 02:29:06;;;;;;;18.50;11.85;;;;;;;24.65;52.10;100254.66;5030172;28;20030;-59
2022/06/27 02:31:33;;;;;;;19.67;11.80;;;;;;;24.88;51.52;100253.47;5030605;28;20481;-60
2022/06/27 02:33:59;;;;;;;19.25;12.10;;;;;;;25.11;50.81;100257.72;5030362;28;20034;-62
2022/06/27 02:36:29;;;;;;;22.08;11.27;;;;;;;25.30;50.28;100237.69;5030257;28;20120;-60
2022/06/27 02:38:57;;;;;;;17.77;11.98;;;;;;;25.73;49.30;100249.25;5030140;28;20089;-57
2022/06/27 02:41:27;;;;;;;19.77;11.65;;;;;;;26.15;48.38;100246.19;5030365;28;20048;-59
2022/06/27 02:43:59;;;;;;;16.67;10.77;;;;;;;26.47;47.49;100240.81;5030484;28;20044;-57
2022/06/27 02:46:25;;;;;;;19.67;10.80;;;;;;;26.73;46.62;100249.97;5029767;28;20029;-60
2022/06/27 02:48:50;;;;;;;15.40;11.27;;;;;;;26.85;46.88;100237.22;5030243;28;20026;-61
2022/06/27 02:51:22;;;;;;;16.73;11.05;;;;;;;27.06;46.42;100251.66;5030509;28;20036;-60
2022/06/27 02:54:10;;;;;;;14.10;11.32;;;;;;;27.23;45.90;100243.69;5029611;28;20030;-58
2022/06/27 02:56:43;;;;;;;16.58;10.73;;;;;;;27.29;45.58;100242.81;5029707;28;20128;-59
2022/06/27 02:59:17;;;;;;;12.48;10.05;;;;;;;27.47;44.77;100244.78;5028497;28;20055;-57
2022/06/27 03:01:43;;;;;;;12.60;10.30;;;;;;;27.80;44.22;100248.28;5030039;28;20140;-59
2022/06/27 03:04:09;;;;;;;15.00;10.68;;;;;;;28.21;43.08;100237.69;5030715;28;20061;-59
2022/06/27 03:06:35;;;;;;;12.02;9.75;;;;;;;28.73;42.31;100237.19;5048570;28;20377;-58
2022/06/27 03:09:01;;;;;;;10.98;9.23;;;;;;;29.26;40.89;100240.22;5034341;28;20096;-59
2022/06/27 03:11:27;;;;;;;12.60;9.57;;;;;;;29.61;39.80;100233.88;5033951;28;20045;-58
2022/06/27 03:13:54;;;;;;;12.27;9.45;;;;;;;29.85;39.22;100228.34;5033201;28;20076;-59
2022/06/27 03:16:21;;;;;;;10.00;8.98;;;;;;;30.28;38.65;100244.72;5033725;28;20087;-60
2022/06/27 03:18:48;;;;;;;16.30;9.75;;;;;;;30.63;37.70;100239.06;5032752;28;20044;-59
2022/06/27 03:21:17;;;;;;;9.85;8.85;;;;;;;30.99;36.97;100240.78;5033852;28;20022;-60
2022/06/27 03:23:50;;;;;;;11.05;8.73;;;;;;;31.34;36.06;100243.34;5013914;28;20030;-58
2022/06/27 03:26:17;;;;;;;9.45;8.52;;;;;;;31.78;35.60;100244.56;5014034;28;20409;-59
2022/06/27 03:28:44;;;;;;;10.38;8.52;;;;;;;32.20;34.48;100238.47;5013468;28;20471;-61
2022/06/27 03:31:09;;;;;;;11.82;9.27;;;;;;;32.52;34.03;100236.06;5014212;28;20037;-59
2022/06/27 03:33:35;;;;;;;9.48;8.48;;;;;;;32.82;33.05;100238.31;5013759;28;20026;-59
2022/06/27 03:36:02;;;;;;;13.13;8.43;;;;;;;33.38;32.15;100236.31;5013768;28;20049;-60
2022/06/27 03:38:27;;;;;;;9.85;8.38;;;;;;;33.61;31.73;100232.31;5013878;28;20034;-60
2022/06/27 03:40:53;;;;;;;12.00;9.20;;;;;;;33.81;31.18;100220.50;5014006;28;20805;-59
2022/06/27 03:43:19;;;;;;;10.40;8.27;;;;;;;34.05;30.95;100229.22;5027800;28;20060;-61
2022/06/27 03:45:45;;;;;;;10.15;8.40;;;;;;;34.53;30.07;100224.69;5032857;28;20043;-59
2022/06/27 03:49:59;;;;;;;9.82;8.70;;;;;;;34.73;29.42;100213.59;5032815;28;20057;-60
2022/06/27 03:50:56;;;;;;;9.48;7.85;;;;;;;35.10;28.98;100227.53;5032530;28;20026;-59
2022/06/27 03:53:21;;;;;;;9.10;8.30;;;;;;;35.50;28.52;100231.41;5032808;28;20492;-60
2022/06/27 03:55:47;;;;;;;9.15;8.27;;;;;;;36.00;27.74;100233.50;5032691;28;20132;-59
2022/06/27 03:58:12;;;;;;;9.82;8.80;;;;;;;36.19;27.12;100222.56;5033551;28;20037;-59
2022/06/27 04:00:38;;;;;;;13.50;8.65;;;;;;;36.53;26.52;100213.47;5032466;28;20049;-59
2022/06/27 04:03:03;;;;;;;12.23;9.07;;;;;;;37.30;25.94;100222.38;5032492;28;20164;-60
2022/06/27 04:05:29;;;;;;;10.70;8.75;;;;;;;37.84;25.10;100220.38;5032753;28;20070;-60
2022/06/27 04:07:54;;;;;;;12.52;8.43;;;;;;;38.54;24.19;100223.69;5031951;28;20145;-59
2022/06/27 04:10:20;;;;;;;11.73;8.43;;;;;;;39.17;23.34;100226.34;5032295;28;20064;-60
2022/06/27 04:12:45;;;;;;;9.40;7.97;;;;;;;39.80;22.56;100231.63;5032944;28;20048;-60
2022/06/27 04:15:11;;;;;;;8.50;7.80;;;;;;;40.19;22.09;100219.88;5031352;28;20037;-60
2022/06/27 04:17:37;;;;;;;11.00;8.50;;;;;;;40.51;21.83;100222.81;5032439;28;20037;-60
2022/06/27 04:20:04;;;;;;;9.73;8.05;;;;;;;41.18;20.16;100223.19;5033145;28;20022;-60
2022/06/27 04:22:29;;;;;;;9.50;7.90;;;;;;;41.74;20.15;100225.63;5032616;28;20033;-61
2022/06/27 04:24:59;;;;;;;12.40;8.55;;;;;;;42.18;19.57;100228.56;5032427;28;20036;-59
2022/06/27 04:27:27;;;;;;;12.02;8.18;;;;;;;42.63;19.18;100232.25;5032263;28;20384;-59
2022/06/27 04:29:53;;;;;;;9.48;8.70;;;;;;;43.20;18.44;100222.75;5032650;28;20091;-60
2022/06/27 04:32:21;;;;;;;8.85;8.00;;;;;;;43.70;17.94;100231.69;5031932;28;20120;-60
2022/06/27 04:34:48;;;;;;;9.70;7.75;;;;;;;44.37;16.99;100231.13;5032430;28;20120;-60
2022/06/27 04:37:16;;;;;;;8.77;7.88;;;;;;;44.99;16.50;100206.03;5032347;28;20038;-61
2022/06/27 04:39:42;;;;;;;9.15;7.95;;;;;;;45.62;15.81;100226.75;5031127;28;20037;-61
2022/06/27 04:42:08;;;;;;;8.82;8.02;;;;;;;46.13;15.26;100227.22;5031509;28;20045;-61
2022/06/27 04:44:35;;;;;;;9.10;8.20;;;;;;;46.65;15.12;100219.06;5032246;28;20146;-60
2022/06/27 04:47:02;;;;;;;10.43;7.68;;;;;;;47.07;14.86;100223.47;5031915;28;20037;-61
2022/06/27 04:49:28;;;;;;;10.60;7.95;;;;;;;47.57;14.10;100195.59;5031243;28;20033;-60
2022/06/27 04:51:54;;;;;;;12.27;7.63;;;;;;;48.08;13.71;100208.16;5031675;28;20025;-60
2022/06/27 04:54:22;;;;;;;8.23;7.40;;;;;;;48.40;13.47;100215.75;5032056;28;20220;-60
2022/06/27 04:56:48;;;;;;;9.43;8.23;;;;;;;48.71;13.21;100216.78;5031998;28;20091;-60
2022/06/27 04:59:14;;;;;;;10.35;7.40;;;;;;;49.19;12.54;100212.81;5031530;28;20465;-61
2022/06/27 05:01:40;;;;;;;8.82;7.82;;;;;;;49.63;12.57;100214.38;5031612;28;20126;-60
2022/06/27 05:04:05;;;;;;;8.50;7.75;;;;;;;50.03;12.16;100210.13;5031324;28;20061;-59
2022/06/27 05:06:31;;;;;;;10.52;7.80;;;;;;;50.32;11.51;100206.84;5031743;28;20025;-59
2022/06/27 05:08:57;;;;;;;8.52;7.75;;;;;;;50.68;11.84;100205.28;5031279;28;20045;-60
2022/06/27 05:11:23;;;;;;;9.13;7.75;;;;;;;51.21;11.36;100211.91;5031297;28;20021;-59
2022/06/27 05:13:48;;;;;;;9.82;7.72;;;;;;;51.59;10.62;100202.41;5031868;28;20072;-60
2022/06/27 05:16:16;;;;;;;8.48;7.68;;;;;;;51.93;10.68;100205.13;5031877;28;20029;-60
2022/06/27 05:18:42;;;;;;;11.20;7.75;;;;;;;52.24;10.89;100194.25;5031571;28;20022;-60
2022/06/27 05:21:08;;;;;;;9.63;8.23;;;;;;;52.67;10.28;100191.56;5031649;28;20040;-60
2022/06/27 05:23:37;;;;;;;10.20;8.10;;;;;;;52.99;10.14;100201.44;5031622;28;20030;-60
2022/06/27 05:26:04;;;;;;;8.02;7.32;;;;;;;53.42;9.86;100192.06;5031535;28;20462;-59
2022/06/27 05:28:30;;;;;;;9.55;8.55;;;;;;;53.87;9.61;100194.44;5030578;28;20038;-60
2022/06/27 05:30:56;;;;;;;9.13;8.20;;;;;;;54.32;8.95;100188.16;5030925;28;20461;-59
2022/06/27 05:33:25;;;;;;;9.50;8.20;;;;;;;54.33;9.34;100183.22;5030328;28;20061;-60
2022/06/27 05:35:52;;;;;;;10.85;8.15;;;;;;;54.43;9.29;100196.72;5031238;28;20043;-60
2022/06/27 05:38:18;;;;;;;8.82;8.05;;;;;;;54.57;8.88;100190.09;5030705;28;20200;-59
2022/06/27 05:40:45;;;;;;;8.88;7.97;;;;;;;54.77;8.52;100184.63;5030471;28;20377;-61
2022/06/27 05:43:11;;;;;;;10.77;8.50;;;;;;;55.01;8.63;100184.06;5031252;28;20096;-63
2022/06/27 05:45:36;;;;;;;9.93;8.93;;;;;;;55.21;8.34;100181.44;5030970;28;20025;-60
2022/06/27 05:48:03;;;;;;;9.57;7.80;;;;;;;55.49;8.36;100185.28;5029039;28;20033;-60
2022/06/27 05:50:30;;;;;;;10.32;8.98;;;;;;;55.74;8.62;100185.06;5030367;28;20433;-60
2022/06/27 05:52:59;;;;;;;10.43;9.18;;;;;;;56.05;7.95;100181.41;5030547;28;20391;-62
2022/06/27 05:55:28;;;;;;;9.18;8.50;;;;;;;56.53;8.05;100191.03;5030034;28;20041;-58
2022/06/27 05:57:57;;;;;;;9.38;8.68;;;;;;;56.61;7.67;100180.25;5029990;28;20040;-59
2022/06/27 06:00:24;;;;;;;8.82;7.90;;;;;;;56.23;7.90;100184.06;5025540;28;20490;-62
2022/06/27 06:02:50;;;;;;;9.35;8.45;;;;;;;56.03;7.77;100181.84;5029395;28;20539;-61
2022/06/27 06:05:17;;;;;;;10.40;9.13;;;;;;;55.95;7.80;100183.13;5029578;28;20112;-61
2022/06/27 06:07:43;;;;;;;9.43;8.73;;;;;;;56.01;7.77;100175.72;5030900;28;20173;-59
2022/06/27 06:10:10;;;;;;;9.27;8.38;;;;;;;56.02;7.66;100174.47;5030411;28;20025;-60
2022/06/27 06:12:36;;;;;;;8.95;8.20;;;;;;;56.37;7.66;100171.56;5029787;28;20021;-67
2022/06/27 06:15:03;;;;;;;9.95;8.73;;;;;;;56.40;7.61;100167.00;5025218;28;20534;-60
2022/06/27 06:17:34;;;;;;;9.15;8.25;;;;;;;56.44;7.51;100168.56;5010505;28;20053;-60
2022/06/27 06:20:01;;;;;;;9.43;8.63;;;;;;;56.23;7.41;100175.44;5020786;28;20488;-60
2022/06/27 06:22:28;;;;;;;8.63;7.90;;;;;;;56.39;7.62;100171.94;5030132;28;20132;-61
2022/06/27 06:24:54;;;;;;;12.13;8.80;;;;;;;56.62;7.22;100159.66;5030019;28;20039;-61
2022/06/27 06:27:21;;;;;;;9.00;8.30;;;;;;;56.53;7.39;100153.66;5030373;28;20152;-60
2022/06/27 06:29:47;;;;;;;9.65;8.68;;;;;;;56.76;7.69;100167.28;5030423;28;20113;-61
2022/06/27 06:32:13;;;;;;;9.27;8.38;;;;;;;56.91;7.32;100167.84;5030893;28;20108;-62
2022/06/27 06:34:40;;;;;;;9.00;8.20;;;;;;;57.17;6.89;100136.63;5030827;28;20464;-60
2022/06/27 06:37:09;;;;;;;9.88;9.07;;;;;;;57.38;6.90;100145.31;5029825;28;20029;-62
2022/06/27 06:39:36;;;;;;;10.70;9.50;;;;;;;57.77;6.80;100158.91;5032448;28;20453;-61
2022/06/27 06:42:03;;;;;;;9.73;9.02;;;;;;;57.89;6.95;100165.28;5034511;28;20136;-61
2022/06/27 06:44:29;;;;;;;9.77;8.98;;;;;;;58.02;6.30;100148.16;5034126;28;20108;-60
2022/06/27 06:46:55;;;;;;;10.05;9.20;;;;;;;58.23;6.23;100163.34;5033888;28;20039;-60
2022/06/27 06:49:22;;;;;;;11.30;8.77;;;;;;;58.10;6.43;100174.72;5034131;28;20108;-60
2022/06/27 06:51:49;;;;;;;10.68;9.88;;;;;;;58.05;6.62;100162.47;5033014;28;20038;-69
2022/06/27 06:54:18;;;;;;;10.32;9.63;;;;;;;58.20;6.45;100167.91;5032386;28;20401;-61
2022/06/27 06:56:49;;;;;;;10.48;9.25;;;;;;;58.56;6.38;100164.22;5030889;28;20037;-59
2022/06/27 06:59:15;;;;;;;9.68;8.98;;;;;;;59.01;6.17;100161.88;5033767;28;20042;-65
2022/06/27 07:01:41;;;;;;;10.65;9.95;;;;;;;59.40;5.48;100156.31;5034059;28;20088;-61
2022/06/27 07:04:08;;;;;;;9.73;9.00;;;;;;;59.93;5.59;100158.13;5033849;28;20139;-62
2022/06/27 07:06:33;;;;;;;12.43;11.43;;;;;;;60.53;4.98;100163.28;5033464;28;20034;-60
2022/06/27 07:09:00;;;;;;;11.68;10.90;;;;;;;61.20;4.53;100177.22;5047702;28;20037;-62
2022/06/27 07:11:31;;;;;;;11.98;11.20;;;;;;;61.20;4.59;100168.53;5033290;28;20032;-62
2022/06/27 07:13:58;;;;;;;13.85;12.60;;;;;;;61.31;5.40;100160.31;5032072;28;20041;-61
2022/06/27 07:16:25;;;;;;;13.57;12.38;;;;;;;61.35;4.64;100158.06;5028684;28;20048;-61
2022/06/27 07:18:53;;;;;;;14.00;13.07;;;;;;;61.82;4.21;100149.75;5030929;28;20037;-60
2022/06/27 07:21:19;;;;;;;14.38;13.27;;;;;;;61.94;4.65;100157.53;5032819;28;20037;-61
2022/06/27 07:23:46;;;;;;;15.70;14.70;;;;;;;61.68;4.62;100137.41;5033561;28;20354;-64
2022/06/27 07:26:12;;;;;;;15.07;13.95;;;;;;;62.22;4.48;100154.00;5032879;28;20033;-65
2022/06/27 07:28:40;;;;;;;16.98;15.98;;;;;;;62.69;3.97;100160.78;5032312;28;20052;-62
2022/06/27 07:31:11;;;;;;;16.15;15.25;;;;;;;62.68;3.93;100162.06;5030985;28;20033;-62
2022/06/27 07:33:41;;;;;;;16.08;14.77;;;;;;;61.79;3.97;100150.69;5029629;28;20056;-62
2022/06/27 07:36:08;;;;;;;16.70;15.43;;;;;;;61.53;4.33;100145.06;5031185;28;20041;-64
2022/06/27 07:38:38;;;;;;;16.45;15.30;;;;;;;60.58;5.28;100156.13;5028630;28;20034;-63
2022/06/27 07:41:05;;;;;;;14.35;13.50;;;;;;;58.75;6.09;100142.34;5032069;28;20029;-62
2022/06/27 07:43:34;;;;;;;14.45;13.45;;;;;;;59.02;5.64;100140.44;5030041;28;20109;-65
2022/06/27 07:46:01;;;;;;;13.40;12.57;;;;;;;60.44;4.43;100140.91;5031207;28;20115;-62
2022/06/27 07:48:27;;;;;;;12.13;11.15;;;;;;;61.22;4.96;100134.13;5029030;28;20139;-61
2022/06/27 07:50:54;;;;;;;12.88;11.98;;;;;;;59.21;5.75;100132.97;5029080;28;20542;-63
2022/06/27 07:53:20;;;;;;;13.82;13.02;;;;;;;58.28;5.66;100140.56;5030917;28;20108;-63
2022/06/27 07:55:46;;;;;;;13.35;12.30;;;;;;;58.56;5.69;100126.75;5031459;28;20032;-62
2022/06/27 07:58:14;;;;;;;13.18;12.13;;;;;;;59.55;5.37;100130.75;5031788;28;20033;-62
2022/06/27 08:00:43;;;;;;;13.27;12.38;;;;;;;59.51;5.17;100130.06;5030944;28;20136;-62
2022/06/27 08:05:53;;;;;;;10.85;10.10;;;;;;;54.31;8.57;100123.50;5029730;28;20030;-62
2022/06/27 08:08:22;;;;;;;10.18;9.48;;;;;;;52.75;9.65;100134.44;5030790;28;20040;-62
2022/06/27 08:10:48;;;;;;;9.75;8.88;;;;;;;53.80;8.11;100097.13;5030557;28;20355;-63
2022/06/27 08:13:13;;;;;;;10.15;9.35;;;;;;;55.06;7.62;100088.97;5030646;28;20142;-62
2022/06/27 08:15:41;;;;;;;9.63;8.65;;;;;;;54.94;8.10;100110.38;5030515;28;20029;-61
2022/06/27 08:18:08;;;;;;;10.27;9.32;;;;;;;52.85;9.30;100124.22;5030538;28;20040;-61
2022/06/27 08:20:35;;;;;;;8.90;8.40;;;;;;;51.89;9.72;100115.78;5032142;28;20025;-62
2022/06/27 08:23:01;;;;;;;9.35;8.52;;;;;;;49.65;11.05;100109.53;5032181;28;20036;-60
2022/06/27 08:25:28;;;;;;;8.93;8.23;;;;;;;47.33;13.04;100117.25;5031253;28;20033;-62
2022/06/27 08:27:55;;;;;;;8.32;7.78;;;;;;;45.46;14.57;100083.28;5031964;28;20026;-61
2022/06/27 08:30:25;;;;;;;8.25;7.57;;;;;;;44.39;15.78;100113.91;5031747;28;20025;-61
2022/06/27 08:32:58;;;;;;;8.02;7.43;;;;;;;43.70;16.42;100111.28;5030917;28;20029;-62
2022/06/27 08:35:23;;;;;;;8.70;8.10;;;;;;;42.51;17.83;100092.22;5028119;28;20036;-59
2022/06/27 08:37:54;;;;;;;9.10;8.40;;;;;;;41.85;18.40;100117.31;5031204;28;20017;-63
2022/06/27 08:40:20;;;;;;;8.82;8.13;;;;;;;41.27;18.33;100110.88;5030329;28;20120;-62
2022/06/27 08:42:47;;;;;;;9.18;8.27;;;;;;;40.54;19.20;100081.91;5030824;28;20060;-61
2022/06/27 08:45:17;;;;;;;8.80;8.10;;;;;;;40.51;19.54;100119.03;5030429;28;20115;-62
2022/06/27 08:47:46;;;;;;;9.77;8.88;;;;;;;40.33;19.95;100106.84;5025320;28;20041;-65
2022/06/27 08:50:14;;;;;;;9.32;8.68;;;;;;;40.14;20.37;100109.78;5029196;28;20080;-65
2022/06/27 08:52:40;;;;;;;9.55;8.65;;;;;;;40.01;20.60;100106.72;5031105;28;20038;-61
2022/06/27 08:55:08;;;;;;;9.90;9.13;;;;;;;39.81;21.12;100107.16;5030675;28;20967;-63
2022/06/27 08:57:40;;;;;;;14.93;10.20;;;;;;;39.39;21.37;100099.63;5036315;28;20060;-60
2022/06/27 09:00:11;;;;;;;10.13;9.32;;;;;;;39.03;21.80;100108.75;5031677;28;20049;-60
2022/06/27 09:02:44;;;;;;;10.10;9.00;;;;;;;39.02;21.77;100107.91;5018101;28;20068;-66
2022/06/27 09:05:16;;;;;;;9.77;8.82;;;;;;;39.12;22.05;100103.25;5020284;28;20037;-61
2022/06/27 09:08:03;;;;;;;9.68;8.95;;;;;;;39.16;21.29;100105.09;5018037;28;20045;-60
2022/06/27 09:10:39;;;;;;;10.65;9.65;;;;;;;39.01;22.15;100099.81;5021083;28;20057;-63
2022/06/27 09:13:08;;;;;;;10.43;9.43;;;;;;;38.71;22.75;100097.25;5027635;28;20102;-62
2022/06/27 09:15:37;;;;;;;10.48;9.77;;;;;;;38.77;22.35;100095.19;5011556;28;20049;-60
2022/06/27 09:18:05;;;;;;;10.48;9.48;;;;;;;38.76;22.50;100090.75;5041568;28;20132;-62
2022/06/27 09:20:46;;;;;;;10.13;9.32;;;;;;;39.03;22.02;100098.34;5029667;28;20493;-61
2022/06/27 09:23:47;;;;;;;11.30;10.15;;;;;;;39.03;21.83;100087.16;5024607;28;20032;-61
2022/06/27 09:26:36;;;;;;;10.52;9.73;;;;;;;39.03;21.91;100089.16;5020648;28;20403;-59
2022/06/27 09:29:05;;;;;;;10.45;9.63;;;;;;;38.74;22.74;100088.25;5021397;28;20049;-61
2022/06/27 09:31:36;;;;;;;11.32;10.52;;;;;;;38.41;23.18;100091.03;5027237;28;20147;-62
2022/06/27 09:34:02;;;;;;;11.50;10.43;;;;;;;37.82;23.88;100084.94;5028638;28;20116;-62
2022/06/27 09:36:30;;;;;;;10.98;10.18;;;;;;;37.46;24.58;100083.41;5029171;28;20128;-62
2022/06/27 09:38:56;;;;;;;11.15;10.25;;;;;;;37.36;24.64;100081.59;5029176;28;20474;-61
2022/06/27 09:41:25;;;;;;;11.50;10.25;;;;;;;37.14;24.54;100063.41;5028968;28;20156;-64
2022/06/27 09:43:52;;;;;;;10.32;9.52;;;;;;;37.17;24.19;100079.56;5019343;28;20386;-61
2022/06/27 09:46:18;;;;;;;11.05;10.02;;;;;;;36.87;23.90;100087.13;5029295;28;20072;-63
2022/06/27 09:48:45;;;;;;;9.43;8.73;;;;;;;36.46;24.73;100081.88;5029370;28;20036;-62
2022/06/27 09:51:15;;;;;;;11.00;9.95;;;;;;;36.06;25.21;100079.13;5028268;28;20040;-65
2022/06/27 09:53:44;;;;;;;10.45;9.45;;;;;;;35.87;25.92;100085.34;5028392;28;20132;-61
2022/06/27 09:56:13;;;;;;;9.70;8.90;;;;;;;35.82;25.88;100085.38;5024838;28;20052;-63
2022/06/27 09:58:41;;;;;;;10.35;9.35;;;;;;;35.79;25.91;100083.16;5028636;28;20053;-62
2022/06/27 10:01:08;;;;;;;9.80;9.00;;;;;;;35.72;25.98;100082.66;5026407;28;20029;-62
2022/06/27 10:03:35;;;;;;;9.82;9.13;;;;;;;35.80;26.18;100079.25;5028931;28;20071;-62
2022/06/27 10:06:01;;;;;;;10.13;9.32;;;;;;;35.97;25.81;100075.28;5027047;28;20041;-62
2022/06/27 10:08:27;;;;;;;10.95;9.80;;;;;;;36.13;26.10;100071.25;5028983;28;20442;-62
2022/06/27 10:11:08;;;;;;;10.20;9.40;;;;;;;36.44;24.87;100073.81;5024615;28;20026;-62
2022/06/27 10:13:39;;;;;;;9.43;8.70;;;;;;;36.63;25.05;100061.97;5026604;28;20064;-62
2022/06/27 10:16:13;;;;;;;9.70;8.80;;;;;;;37.10;24.53;100069.88;5028659;28;20489;-62
2022/06/27 10:18:51;;;;;;;10.70;9.70;;;;;;;37.52;24.11;100059.91;5024308;28;20025;-62
2022/06/27 10:21:26;;;;;;;10.10;9.20;;;;;;;37.77;23.33;100063.47;5024129;28;20095;-64
2022/06/27 10:24:26;;;;;;;9.85;9.10;;;;;;;37.75;23.63;100071.31;5026239;28;20029;-64
2022/06/27 10:26:54;;;;;;;10.13;9.15;;;;;;;37.39;23.85;100055.84;5025855;28;20041;-62
2022/06/27 10:29:42;;;;;;;9.98;9.18;;;;;;;37.02;24.28;100057.44;5028609;28;20037;-61
2022/06/27 10:32:39;;;;;;;11.82;9.00;;;;;;;36.69;24.63;100063.59;5025497;28;20172;-63
2022/06/27 10:35:04;;;;;;;9.88;8.90;;;;;;;36.35;25.42;100056.03;5027476;28;20057;-63
2022/06/27 10:37:34;;;;;;;9.95;9.00;;;;;;;36.08;25.32;100046.22;5028289;28;20060;-63
2022/06/27 10:40:22;;;;;;;10.27;9.40;;;;;;;35.97;25.81;100059.38;5028913;28;20048;-62
2022/06/27 10:42:57;;;;;;;9.63;8.82;;;;;;;35.37;26.44;100054.66;5028228;28;20041;-64
2022/06/27 10:45:29;;;;;;;9.23;8.52;;;;;;;35.14;26.84;100056.13;5030218;28;20029;-66
2022/06/27 10:48:01;;;;;;;9.77;8.88;;;;;;;35.15;27.09;100060.59;5029461;28;20056;-65
2022/06/27 10:50:38;;;;;;;9.68;8.77;;;;;;;35.23;27.41;100051.66;5028473;28;20485;-63
2022/06/27 10:53:19;;;;;;;9.80;9.00;;;;;;;35.53;26.05;100049.03;5030375;28;20057;-62
2022/06/27 10:55:45;;;;;;;9.32;8.63;;;;;;;35.43;25.77;100042.38;5029221;28;20061;-64
2022/06/27 10:58:31;;;;;;;9.93;8.90;;;;;;;35.45;25.96;100044.88;5029360;28;20095;-62
2022/06/27 11:01:13;;;;;;;10.13;9.20;;;;;;;35.31;26.35;100045.50;5028490;28;20037;-62
2022/06/27 11:03:39;;;;;;;9.35;8.60;;;;;;;35.10;27.62;100041.97;5026528;28;20133;-61
2022/06/27 11:06:05;;;;;;;10.02;9.05;;;;;;;35.05;27.71;100041.97;5028390;28;20373;-60
2022/06/27 11:08:36;;;;;;;10.60;9.60;;;;;;;34.98;27.42;100041.41;5028616;28;20112;-63
2022/06/27 11:11:03;;;;;;;9.73;8.93;;;;;;;34.72;27.72;100044.25;5023897;28;20048;-60
2022/06/27 11:13:47;;;;;;;10.65;9.60;;;;;;;34.86;27.13;100044.50;5028902;28;20083;-63
2022/06/27 11:16:15;;;;;;;10.07;9.27;;;;;;;34.86;27.72;100038.94;5029670;28;20568;-61
2022/06/27 11:18:50;;;;;;;9.82;9.00;;;;;;;34.97;27.20;100031.41;5029622;28;20033;-64
2022/06/27 11:21:19;;;;;;;9.68;8.88;;;;;;;35.16;27.37;100028.84;5027433;28;20029;-63
2022/06/27 11:23:55;;;;;;;9.80;9.00;;;;;;;35.56;26.44;100026.19;5029755;28;20044;-62
2022/06/27 11:26:23;;;;;;;9.77;8.82;;;;;;;35.82;25.76;100026.88;5031690;28;20037;-63
2022/06/27 11:34:18;;;;;;;10.27;9.38;;;;;;;36.79;24.16;100012.44;5032430;28;20124;-62